Terminal Aerodrome Forecast
Issued by NWS

Home | Current Version | Previous Version | Text Only | Print | Product List | Glossary On
Versions: 1 2 3 4 5 6 7 8 9 10 11 12 13 14 15 16 17 18 19 20 21 22 23 24 25 26 27
000
FTUS43 KPAH 160302 AAD
TAFCGI
TAF AMD
KCGI 160302Z 1603/1624 21017G29KT P6SM BKN250
     FM160500 22014G22KT P6SM OVC035
     FM160700 31015G23KT 4SM -SHRA BR OVC015
     FM161100 34017G25KT 6SM -SHRA BR OVC010
     FM161800 36014G21KT P6SM OVC025
     FM162100 01010KT P6SM BKN035=

USA.gov is the U.S. government's official web portal to all federal, state and local government web resources and services.